Time;durP1;ratioP1;P1;durP2;ratioP2;P2;SDS_P1;SDS_P2;PMS_P1;PMS_P2;Temp;Humidity;BMP_temperature;BMP_pressure;BME280_temperature;BME280_humidity;BME280_pressure;Samples;Min_cycle;Max_cycle;Signal;HPM_P1;HPM_P2
2021/06/22 00:00:32;;;;;;;6.87;4.10;;;18.40;99.90;;;;;;4912786;29;20641;-90
2021/06/22 00:02:58;;;;;;;5.37;4.23;;;18.40;99.90;;;;;;4920538;29;20203;-90
2021/06/22 00:05:25;;;;;;;5.13;3.97;;;18.30;99.90;;;;;;4908503;29;20185;-90
2021/06/22 00:07:56;;;;;;;6.00;3.60;;;18.40;99.90;;;;;;4920585;29;20203;-90
2021/06/22 00:10:25;;;;;;;6.43;4.27;;;18.50;99.90;;;;;;4907011;29;20238;-90
2021/06/22 00:12:51;;;;;;;7.90;3.90;;;18.50;99.90;;;;;;4914644;29;20565;-90
2021/06/22 00:15:19;;;;;;;6.43;4.13;;;18.40;99.90;;;;;;4900318;29;20209;-90
2021/06/22 00:17:45;;;;;;;9.07;4.07;;;18.40;99.90;;;;;;4906320;29;20189;-90
2021/06/22 00:20:12;;;;;;;7.57;4.10;;;18.30;99.90;;;;;;4933443;29;20696;-90
2021/06/22 00:22:40;;;;;;;6.53;3.50;;;18.20;99.90;;;;;;4934647;29;20554;-90
2021/06/22 00:25:07;;;;;;;6.43;3.83;;;18.20;99.90;;;;;;4903519;29;20190;-90
2021/06/22 00:27:33;;;;;;;5.67;3.73;;;18.20;99.90;;;;;;4900058;29;20202;-90
2021/06/22 00:29:59;;;;;;;5.57;3.53;;;18.10;99.90;;;;;;4916884;29;20200;-90
2021/06/22 00:32:24;;;;;;;9.33;4.27;;;18.00;99.90;;;;;;4901491;29;20227;-90
2021/06/22 00:34:51;;;;;;;8.23;4.00;;;18.10;99.90;;;;;;4905403;29;20184;-90
2021/06/22 00:37:18;;;;;;;10.00;4.10;;;18.10;99.90;;;;;;4904022;29;20195;-90
2021/06/22 00:39:44;;;;;;;10.00;4.77;;;18.10;99.90;;;;;;4915577;29;20176;-90
2021/06/22 00:42:11;;;;;;;7.03;4.43;;;18.20;99.90;;;;;;4935050;29;20197;-91
2021/06/22 00:44:46;;;;;;;7.80;4.43;;;18.10;99.90;;;;;;4938589;29;20203;-90
2021/06/22 00:47:16;;;;;;;8.23;5.80;;;18.10;99.90;;;;;;4904346;29;20221;-91
2021/06/22 00:49:43;;;;;;;8.77;4.80;;;18.10;99.90;;;;;;4903314;29;20274;-91
2021/06/22 00:52:10;;;;;;;9.00;4.50;;;18.00;99.90;;;;;;4903593;29;20258;-90
2021/06/22 00:54:36;;;;;;;7.83;4.87;;;18.10;99.90;;;;;;4917712;29;20218;-90
2021/06/22 00:57:06;;;;;;;8.50;4.90;;;18.10;99.90;;;;;;4930781;29;20186;-90
2021/06/22 00:59:32;;;;;;;7.73;4.53;;;18.10;99.90;;;;;;4927391;29;20769;-89
2021/06/22 01:01:58;;;;;;;7.07;4.50;;;18.10;99.90;;;;;;4916550;29;20589;-90
2021/06/22 01:04:27;;;;;;;6.33;4.27;;;18.20;99.90;;;;;;4914552;29;20219;-90
2021/06/22 01:06:56;;;;;;;11.07;4.00;;;18.10;99.90;;;;;;4909107;29;20203;-91
2021/06/22 01:09:22;;;;;;;5.87;4.20;;;18.20;99.90;;;;;;4912083;29;20434;-90
2021/06/22 01:11:49;;;;;;;10.77;4.37;;;18.10;99.90;;;;;;4935722;29;20209;-90
2021/06/22 01:14:15;;;;;;;8.20;3.63;;;18.10;99.90;;;;;;4936202;29;20237;-90
2021/06/22 01:16:41;;;;;;;7.20;3.73;;;18.10;99.90;;;;;;4924627;29;20186;-90
2021/06/22 01:19:09;;;;;;;8.23;3.70;;;18.10;99.90;;;;;;4915977;29;20186;-91
2021/06/22 01:21:36;;;;;;;7.57;3.87;;;18.10;99.90;;;;;;4903254;29;20261;-91
2021/06/22 01:24:07;;;;;;;6.37;3.87;;;18.10;99.90;;;;;;4911047;29;20247;-90
2021/06/22 01:26:37;;;;;;;7.90;3.73;;;18.20;99.90;;;;;;4903801;29;20604;-89
2021/06/22 01:29:07;;;;;;;9.27;4.67;;;18.10;99.90;;;;;;4931926;29;20187;-90
2021/06/22 01:31:32;;;;;;;7.40;3.33;;;18.10;99.90;;;;;;4937315;29;20211;-90
2021/06/22 01:33:58;;;;;;;5.43;3.93;;;18.10;99.90;;;;;;4903459;29;20663;-89
2021/06/22 01:36:26;;;;;;;7.33;3.90;;;18.10;99.90;;;;;;4903539;29;20196;-89
2021/06/22 01:38:51;;;;;;;6.37;3.60;;;18.10;99.90;;;;;;4911348;29;20186;-90
2021/06/22 01:41:17;;;;;;;5.60;3.50;;;18.10;99.90;;;;;;4902391;29;20190;-91
2021/06/22 01:43:43;;;;;;;9.90;3.50;;;18.10;99.90;;;;;;4902718;29;20294;-90
2021/06/22 01:46:08;;;;;;;8.33;3.50;;;18.10;99.90;;;;;;4903775;29;20187;-89
2021/06/22 01:48:34;;;;;;;8.57;3.40;;;18.10;99.90;;;;;;4905975;29;20172;-90
2021/06/22 01:51:00;;;;;;;5.87;3.47;;;18.10;99.90;;;;;;4918499;29;20294;-90
2021/06/22 01:53:25;;;;;;;4.40;3.00;;;18.00;99.90;;;;;;4910273;29;20192;-90
2021/06/22 01:55:52;;;;;;;5.87;2.80;;;18.10;99.90;;;;;;4910783;29;20245;-89
2021/06/22 01:58:20;;;;;;;6.57;3.33;;;18.00;99.90;;;;;;4936155;29;20187;-90
2021/06/22 02:00:51;;;;;;;9.27;3.63;;;18.00;99.90;;;;;;4917119;29;20177;-91
2021/06/22 02:03:19;;;;;;;6.10;3.40;;;18.00;99.90;;;;;;4909519;29;20688;-90
2021/06/22 02:05:45;;;;;;;7.13;3.77;;;18.10;99.90;;;;;;4933384;29;20187;-90
2021/06/22 02:08:11;;;;;;;7.70;4.07;;;17.90;99.90;;;;;;4902591;29;20586;-90
2021/06/22 02:10:38;;;;;;;7.27;4.00;;;18.00;99.90;;;;;;4908938;29;20194;-91
2021/06/22 02:13:07;;;;;;;5.03;3.50;;;17.90;99.90;;;;;;4903107;29;20200;-90
2021/06/22 02:15:35;;;;;;;7.20;3.23;;;17.90;99.90;;;;;;4904917;29;20218;-92
2021/06/22 02:18:03;;;;;;;6.73;3.80;;;17.80;99.90;;;;;;4926842;29;20192;-91
2021/06/22 02:20:30;;;;;;;6.00;3.27;;;17.80;99.90;;;;;;4902245;29;20185;-91
2021/06/22 02:22:55;;;;;;;6.07;3.30;;;17.70;99.90;;;;;;4916470;29;20226;-91
2021/06/22 02:25:22;;;;;;;6.63;3.83;;;17.70;99.90;;;;;;4913903;29;20234;-91
2021/06/22 02:27:47;;;;;;;7.90;3.23;;;17.70;99.90;;;;;;4920710;29;20624;-91
2021/06/22 02:30:20;;;;;;;5.40;3.63;;;17.70;99.90;;;;;;4919896;29;20281;-90
2021/06/22 02:32:51;;;;;;;5.37;3.53;;;17.70;99.90;;;;;;4928179;29;20216;-91
2021/06/22 02:35:17;;;;;;;6.10;3.50;;;17.70;99.90;;;;;;4905492;29;20184;-89
2021/06/22 02:37:43;;;;;;;5.83;3.33;;;17.70;99.90;;;;;;4912132;29;20191;-90
2021/06/22 02:40:11;;;;;;;9.57;3.47;;;17.70;99.90;;;;;;4914465;29;20576;-86
2021/06/22 02:42:37;;;;;;;10.20;3.87;;;17.60;99.90;;;;;;4907367;29;20223;-91
2021/06/22 02:45:06;;;;;;;6.70;3.27;;;17.60;99.90;;;;;;4902278;29;20564;-91
2021/06/22 02:47:32;;;;;;;8.70;3.70;;;17.60;99.90;;;;;;4917179;29;20187;-90
2021/06/22 02:49:58;;;;;;;6.13;3.33;;;17.60;99.90;;;;;;4905451;29;20245;-90
2021/06/22 02:52:23;;;;;;;7.60;3.30;;;17.60;99.90;;;;;;4919258;29;20269;-90
2021/06/22 02:54:52;;;;;;;7.47;3.20;;;17.60;99.90;;;;;;4902921;29;20526;-91
2021/06/22 02:57:17;;;;;;;6.40;3.27;;;17.40;99.90;;;;;;4916787;29;20188;-90
2021/06/22 02:59:43;;;;;;;5.87;3.50;;;17.40;99.90;;;;;;4900533;29;20545;-90
2021/06/22 03:02:09;;;;;;;6.50;3.40;;;17.40;99.90;;;;;;4917066;29;20264;-90
2021/06/22 03:04:35;;;;;;;8.37;3.23;;;17.40;99.90;;;;;;4905828;29;20194;-91
2021/06/22 03:07:01;;;;;;;7.50;3.60;;;17.40;99.90;;;;;;4903575;29;20578;-90
2021/06/22 03:09:27;;;;;;;5.33;3.40;;;17.50;99.90;;;;;;4935414;29;20205;-90
2021/06/22 03:11:54;;;;;;;6.17;3.33;;;17.50;99.90;;;;;;4915979;29;20225;-91
2021/06/22 03:14:21;;;;;;;6.33;3.17;;;17.40;99.90;;;;;;4930152;29;20212;-90
2021/06/22 03:16:47;;;;;;;5.53;3.00;;;17.40;99.90;;;;;;4928887;29;20182;-90
2021/06/22 03:19:13;;;;;;;5.80;3.00;;;17.40;99.90;;;;;;4902054;29;20209;-89
2021/06/22 03:21:42;;;;;;;7.53;3.00;;;17.40;99.90;;;;;;4900709;29;20197;-89
2021/06/22 03:24:13;;;;;;;6.67;3.40;;;17.40;99.90;;;;;;4910991;29;20186;-90
2021/06/22 03:26:39;;;;;;;6.67;3.90;;;17.40;99.90;;;;;;4920094;29;20181;-90
2021/06/22 03:29:05;;;;;;;7.17;3.90;;;17.40;99.90;;;;;;4910800;29;20566;-90
2021/06/22 03:31:32;;;;;;;8.93;3.23;;;17.40;99.90;;;;;;4906828;29;20309;-90
2021/06/22 03:33:58;;;;;;;8.00;3.97;;;17.40;99.90;;;;;;4927869;29;20352;-90
2021/06/22 03:36:23;;;;;;;7.60;3.43;;;17.40;99.90;;;;;;4907179;29;20271;-90
2021/06/22 03:41:53;;;;;;;8.50;4.80;;;17.50;99.90;;;;;;4903359;29;20600;-91
2021/06/22 03:44:19;;;;;;;7.40;3.77;;;17.50;99.90;;;;;;4925171;29;20229;-90
2021/06/22 03:46:44;;;;;;;6.90;3.67;;;17.50;99.90;;;;;;4918763;29;20189;-90
2021/06/22 03:49:10;;;;;;;7.87;4.23;;;17.40;99.90;;;;;;4919642;29;20271;-91
2021/06/22 03:51:36;;;;;;;10.77;3.73;;;17.40;99.90;;;;;;4905318;29;20213;-90
2021/06/22 03:54:02;;;;;;;8.93;4.00;;;17.40;99.90;;;;;;4900820;29;20219;-90
2021/06/22 03:56:28;;;;;;;10.13;3.93;;;17.40;99.90;;;;;;4913846;29;20188;-90
2021/06/22 03:58:54;;;;;;;11.93;4.03;;;17.50;99.90;;;;;;4922475;29;20191;-90
2021/06/22 04:01:20;;;;;;;6.97;4.23;;;17.40;99.90;;;;;;4910331;29;20651;-90
2021/06/22 04:03:46;;;;;;;9.03;4.37;;;17.40;99.90;;;;;;4901027;29;20652;-90
2021/06/22 04:06:24;;;;;;;11.13;4.27;;;17.40;99.90;;;;;;4899595;29;20185;-91
2021/06/22 04:08:50;;;;;;;10.33;4.57;;;17.40;99.90;;;;;;4900000;29;20273;-90
2021/06/22 04:11:16;;;;;;;7.07;4.30;;;17.40;99.90;;;;;;4919982;29;20303;-90
2021/06/22 04:13:41;;;;;;;9.17;4.53;;;17.30;99.90;;;;;;4909118;29;20644;-89
2021/06/22 04:16:07;;;;;;;10.63;3.77;;;17.30;99.90;;;;;;4912018;29;20213;-90
2021/06/22 04:18:33;;;;;;;8.57;4.00;;;17.30;99.90;;;;;;4910151;29;20195;-91
2021/06/22 04:21:00;;;;;;;8.90;4.50;;;17.20;99.90;;;;;;4904766;29;20224;-90
2021/06/22 04:23:25;;;;;;;9.40;3.90;;;17.40;99.90;;;;;;4905943;29;20187;-90
2021/06/22 04:25:54;;;;;;;9.93;4.30;;;17.20;99.90;;;;;;4920587;29;20186;-90
2021/06/22 04:28:20;;;;;;;11.27;4.17;;;17.20;99.90;;;;;;4904844;29;20187;-90
2021/06/22 04:30:46;;;;;;;11.40;4.00;;;17.30;99.90;;;;;;4905816;29;20183;-90
2021/06/22 04:33:12;;;;;;;9.93;4.60;;;17.20;99.90;;;;;;4907967;29;20224;-90
2021/06/22 04:35:38;;;;;;;16.77;4.87;;;17.20;99.90;;;;;;4920685;29;20189;-90
2021/06/22 04:38:06;;;;;;;11.93;4.53;;;17.20;99.90;;;;;;4918639;29;20603;-90
2021/06/22 04:40:33;;;;;;;7.40;4.37;;;17.20;99.90;;;;;;4905728;29;20190;-90
2021/06/22 04:43:01;;;;;;;6.73;4.23;;;17.20;99.90;;;;;;4909233;29;20198;-91
2021/06/22 04:45:28;;;;;;;10.07;4.40;;;17.20;99.90;;;;;;4898810;29;20206;-90
2021/06/22 04:47:56;;;;;;;9.57;4.47;;;17.30;99.90;;;;;;4900830;29;20654;-90
2021/06/22 04:50:37;;;;;;;12.97;4.20;;;17.20;99.90;;;;;;4907117;29;20264;-91
2021/06/22 04:53:45;;;;;;;10.37;4.50;;;17.20;99.90;;;;;;4900345;29;20206;-92
2021/06/22 04:56:12;;;;;;;9.33;4.63;;;17.20;99.90;;;;;;4925459;29;20247;-91
2021/06/22 04:58:37;;;;;;;11.07;4.90;;;17.10;99.90;;;;;;4903529;29;20195;-90
2021/06/22 05:01:04;;;;;;;10.27;4.63;;;17.10;99.90;;;;;;4916143;29;20309;-90
2021/06/22 05:03:36;;;;;;;7.93;4.00;;;17.10;99.90;;;;;;4937528;29;20233;-90
2021/06/22 05:06:02;;;;;;;10.23;4.87;;;17.10;99.90;;;;;;4920570;29;20236;-89
2021/06/22 05:08:27;;;;;;;13.17;4.50;;;17.00;99.90;;;;;;4915785;29;20185;-90
2021/06/22 05:10:53;;;;;;;10.33;5.13;;;17.00;99.90;;;;;;4905216;29;20225;-89
2021/06/22 05:13:20;;;;;;;9.37;4.97;;;17.00;99.90;;;;;;4921254;29;20196;-89
2021/06/22 05:15:46;;;;;;;8.13;5.30;;;17.00;99.90;;;;;;4936324;29;20204;-89
2021/06/22 05:18:12;;;;;;;10.47;5.50;;;17.00;99.90;;;;;;4904237;29;20197;-89
2021/06/22 05:20:38;;;;;;;6.00;5.07;;;16.90;99.90;;;;;;4906583;29;20182;-90
2021/06/22 05:23:04;;;;;;;8.20;5.00;;;16.90;99.90;;;;;;4904078;29;20187;-90
2021/06/22 05:25:30;;;;;;;13.47;5.70;;;16.90;99.90;;;;;;4910886;29;20187;-90
2021/06/22 05:27:56;;;;;;;9.47;5.17;;;17.00;99.90;;;;;;4911134;29;20187;-90
2021/06/22 05:30:22;;;;;;;13.03;4.80;;;17.00;99.90;;;;;;4897218;29;20252;-85
2021/06/22 05:32:48;;;;;;;15.23;5.40;;;17.00;99.90;;;;;;4908559;29;20240;-85
2021/06/22 05:35:13;;;;;;;9.03;4.73;;;17.00;99.90;;;;;;4908857;29;20384;-85
2021/06/22 05:37:40;;;;;;;15.33;5.37;;;17.10;99.90;;;;;;4903235;29;20560;-89
2021/06/22 05:40:07;;;;;;;12.53;5.70;;;17.10;99.90;;;;;;4905170;29;20607;-90
2021/06/22 05:42:33;;;;;;;9.50;5.60;;;17.00;99.90;;;;;;4902244;29;20208;-90
2021/06/22 05:45:04;;;;;;;13.03;6.17;;;17.10;99.90;;;;;;4902788;29;20228;-91
2021/06/22 05:47:29;;;;;;;17.63;5.60;;;17.10;99.90;;;;;;4912270;29;20182;-90
2021/06/22 05:49:55;;;;;;;9.73;5.23;;;17.10;99.90;;;;;;4910857;29;20189;-90
2021/06/22 05:52:22;;;;;;;10.97;5.33;;;17.10;99.90;;;;;;4912999;29;20224;-90
2021/06/22 05:54:49;;;;;;;12.07;6.10;;;17.10;99.90;;;;;;4910240;29;20280;-90
2021/06/22 05:57:15;;;;;;;12.60;5.93;;;17.00;99.90;;;;;;4904753;29;20191;-89
2021/06/22 05:59:41;;;;;;;9.73;5.93;;;17.00;99.90;;;;;;4893765;29;20272;-89
2021/06/22 06:02:07;;;;;;;8.73;5.67;;;17.10;99.90;;;;;;4903264;29;20546;-89
2021/06/22 06:04:36;;;;;;;10.77;5.47;;;17.00;99.90;;;;;;4901854;29;20241;-90
2021/06/22 06:10:20;;;;;;;11.93;5.60;;;17.00;99.90;;;;;;4902515;29;20199;-92
2021/06/22 06:13:47;;;;;;;14.87;6.10;;;17.10;99.90;;;;;;4904651;29;20231;-91
2021/06/22 06:16:20;;;;;;;;;;;;;;;;;;;;;
2021/06/22 06:26:42;;;;;;;11.83;6.40;;;16.90;99.90;;;;;;4799122;29;20215;-93
2021/06/22 06:33:17;;;;;;;;;;;;;;;;;;;;;
2021/06/22 06:36:35;;;;;;;12.13;5.40;;;16.80;99.90;;;;;;4798827;29;20210;-93
2021/06/22 06:39:40;;;;;;;;;;;;;;;;;;;;;
2021/06/22 06:42:14;;;;;;;10.47;5.43;;;16.70;99.90;;;;;;4770471;29;20193;-93
2021/06/22 06:45:19;;;;;;;;;;;;;;;;;;;;;
2021/06/22 06:48:27;;;;;;;;;;;;;;;;;;;;;
2021/06/22 06:51:29;;;;;;;;;;;;;;;;;;;;;
2021/06/22 06:54:26;;;;;;;12.47;5.83;;;17.10;99.90;;;;;;4888930;29;20194;-92
2021/06/22 06:57:14;;;;;;;11.97;5.70;;;17.10;99.90;;;;;;4911592;29;20653;-93
2021/06/22 06:59:50;;;;;;;9.60;5.23;;;17.20;99.90;;;;;;4900564;29;20189;-92
2021/06/22 07:02:19;;;;;;;13.17;5.77;;;17.10;99.90;;;;;;4903740;29;20181;-92
2021/06/22 07:04:52;;;;;;;7.60;5.00;;;17.10;99.90;;;;;;4906523;29;20183;-92
2021/06/22 07:07:18;;;;;;;8.40;4.87;;;17.20;99.90;;;;;;4888959;29;20615;-91
2021/06/22 07:09:43;;;;;;;13.77;5.23;;;17.20;99.90;;;;;;4899560;29;20191;-92
2021/06/22 07:12:10;;;;;;;10.70;6.10;;;17.10;99.90;;;;;;4901452;29;20213;-92
2021/06/22 07:17:24;;;;;;;11.93;5.10;;;17.10;99.90;;;;;;4915929;29;20243;-94
2021/06/22 07:19:50;;;;;;;11.23;5.87;;;17.30;99.90;;;;;;4893481;29;20181;-93
2021/06/22 07:22:16;;;;;;;14.23;5.33;;;17.30;99.90;;;;;;4899522;29;20210;-93
2021/06/22 07:24:49;;;;;;;10.53;5.63;;;17.30;99.90;;;;;;4903772;29;20202;-92
2021/06/22 07:27:19;;;;;;;9.33;5.43;;;17.30;99.90;;;;;;4896057;29;20194;-93
2021/06/22 07:40:37;;;;;;;;;;;;;;;;;;;;;
2021/06/22 07:50:18;;;;;;;;;;;;;;;;;;;;;
2021/06/22 07:53:26;;;;;;;;;;;;;;;;;;;;;
2021/06/22 07:56:45;;;;;;;;;;;;;;;;;;;;;
2021/06/22 08:10:37;;;;;;;;;;;;;;;;;;;;;
2021/06/22 08:14:20;;;;;;;;;;;;;;;;;;;;;
2021/06/22 08:26:48;;;;;;;12.60;7.37;;;18.30;99.90;;;;;;4862294;29;20705;-91
2021/06/22 08:30:11;;;;;;;12.10;6.17;;;18.30;99.90;;;;;;4898155;29;20236;-92
2021/06/22 08:33:17;;;;;;;;;;;;;;;;;;;;;
2021/06/22 08:39:38;;;;;;;10.83;6.30;;;18.30;99.90;;;;;;4799601;29;20198;-92
2021/06/22 08:46:04;;;;;;;12.60;6.67;;;18.40;99.90;;;;;;4802275;29;20202;-92
2021/06/22 08:49:20;;;;;;;;;;;;;;;;;;;;;
2021/06/22 08:52:40;;;;;;;;;;;;;;;;;;;;;
2021/06/22 08:59:03;;;;;;;13.77;6.57;;;18.60;99.90;;;;;;4880088;29;20191;-92
2021/06/22 09:05:51;;;;;;;;;;;;;;;;;;;;;
2021/06/22 09:15:37;;;;;;;9.47;5.30;;;18.60;99.90;;;;;;4808358;29;20288;-91
2021/06/22 09:18:57;;;;;;;9.67;6.47;;;18.40;99.90;;;;;;4831417;29;20208;-91
2021/06/22 09:21:43;;;;;;;10.23;5.60;;;18.50;99.90;;;;;;4823788;29;20205;-91
2021/06/22 09:24:57;;;;;;;9.73;5.30;;;18.50;99.90;;;;;;4829438;29;20304;-91
2021/06/22 09:31:23;;;;;;;8.97;5.20;;;18.60;99.90;;;;;;4846914;23;20314;-91
2021/06/22 09:34:31;;;;;;;;;;;;;;;;;;;;;
2021/06/22 09:37:17;;;;;;;11.23;5.93;;;18.70;99.90;;;;;;4936845;29;20196;-91
2021/06/22 09:39:59;;;;;;;10.30;5.97;;;18.80;99.90;;;;;;4920698;29;20195;-93
2021/06/22 09:42:45;;;;;;;13.23;5.73;;;18.80;99.90;;;;;;4920621;29;20716;-92
2021/06/22 09:45:37;;;;;;;9.73;5.17;;;19.00;99.90;;;;;;4914758;29;20195;-91
2021/06/22 09:48:16;;;;;;;9.83;5.10;;;19.10;99.90;;;;;;4916176;29;20188;-90
2021/06/22 09:50:46;;;;;;;9.97;5.23;;;19.20;99.90;;;;;;4917553;29;20215;-91
2021/06/22 09:53:25;;;;;;;10.57;5.03;;;19.30;99.90;;;;;;4916262;29;20217;-92
2021/06/22 09:55:54;;;;;;;14.03;5.50;;;19.50;99.90;;;;;;4920892;29;20215;-92
2021/06/22 09:58:54;;;;;;;8.50;4.77;;;19.60;99.90;;;;;;4916625;29;20195;-91
2021/06/22 10:05:29;;;;;;;;;;;;;;;;;;;;;
2021/06/22 10:08:20;;;;;;;;;;;;;;;;;;;;;
2021/06/22 10:18:27;;;;;;;;;;;;;;;;;;;;;
2021/06/22 10:25:02;;;;;;;;;;;;;;;;;;;;;
2021/06/22 10:28:11;;;;;;;;;;;;;;;;;;;;;
2021/06/22 10:38:27;;;;;;;;;;;;;;;;;;;;;
2021/06/22 10:41:44;;;;;;;12.80;7.93;;;19.90;97.60;;;;;;4824539;29;20184;-93
2021/06/22 10:48:33;;;;;;;13.33;8.10;;;19.60;97.90;;;;;;4779844;29;20534;-92
2021/06/22 10:55:31;;;;;;;;;;;;;;;;;;;;;
2021/06/22 10:58:57;;;;;;;;;;;;;;;;;;;;;
2021/06/22 11:01:30;;;;;;;;;;;;;;;;;;;;;
2021/06/22 11:04:23;;;;;;;12.10;8.60;;;20.20;95.40;;;;;;4917591;29;20275;-94
2021/06/22 11:14:13;;;;;;;17.97;11.50;;;19.70;96.30;;;;;;4843164;29;20218;-93
2021/06/22 11:16:47;;;;;;;15.37;11.27;;;19.90;95.50;;;;;;4848734;29;20273;-93
2021/06/22 11:19:31;;;;;;;17.73;12.67;;;19.70;96.40;;;;;;4872656;29;20195;-94
2021/06/22 11:21:59;;;;;;;16.93;12.23;;;19.70;96.40;;;;;;4915771;29;20191;-93
2021/06/22 11:25:07;;;;;;;17.47;12.20;;;19.80;95.90;;;;;;4919594;29;20293;-92
2021/06/22 11:28:01;;;;;;;20.67;12.53;;;19.80;96.40;;;;;;4912784;29;20180;-93
2021/06/22 11:31:12;;;;;;;17.27;12.53;;;20.00;96.20;;;;;;4882627;29;20189;-93
2021/06/22 11:33:57;;;;;;;;;;;;;;;;;;;;;
2021/06/22 11:36:42;;;;;;;;;;;;;;;;;;;;;
2021/06/22 11:39:20;;;;;;;17.10;12.80;;;20.40;95.60;;;;;;4898409;29;20191;-93
2021/06/22 11:42:21;;;;;;;16.10;12.63;;;20.50;95.90;;;;;;4880993;29;20184;-93
2021/06/22 11:44:55;;;;;;;15.67;12.67;;;20.60;95.60;;;;;;4882197;29;20181;-93
2021/06/22 11:47:44;;;;;;;18.93;13.17;;;20.50;95.20;;;;;;4882429;29;20192;-93
2021/06/22 11:50:58;;;;;;;;;;;;;;;;;;;;;
2021/06/22 11:57:31;;;;;;;;;;;;;;;;;;;;;
2021/06/22 12:00:54;;;;;;;;;;;;;;;;;;;;;
2021/06/22 12:04:12;;;;;;;;;;;;;;;;;;;;;
2021/06/22 12:07:16;;;;;;;19.80;13.63;;;20.00;95.30;;;;;;4734945;30;20209;-93
2021/06/22 12:09:57;;;;;;;;;;;;;;;;;;;;;
2021/06/22 12:12:26;;;;;;;21.67;14.03;;;20.10;95.70;;;;;;4804310;29;20756;-92
2021/06/22 12:14:52;;;;;;;18.90;13.13;;;20.10;95.30;;;;;;4867278;29;20272;-92
2021/06/22 12:17:22;;;;;;;17.43;13.43;;;20.00;95.70;;;;;;4897123;29;20181;-92
2021/06/22 12:19:56;;;;;;;22.60;13.07;;;20.10;95.70;;;;;;4897125;29;20597;-93
2021/06/22 12:22:33;;;;;;;17.57;14.07;;;20.10;96.30;;;;;;4897042;29;20195;-93
2021/06/22 12:25:49;;;;;;;18.57;12.93;;;20.10;96.00;;;;;;4915188;29;20188;-93
2021/06/22 12:28:19;;;;;;;18.60;13.77;;;20.10;95.20;;;;;;4902946;29;20195;-92
2021/06/22 12:31:01;;;;;;;21.07;14.93;;;20.20;95.00;;;;;;4916487;29;20185;-92
2021/06/22 12:34:08;;;;;;;;;;;;;;;;;;;;;
2021/06/22 12:36:58;;;;;;;20.73;13.67;;;20.20;95.60;;;;;;4902158;29;20695;-92
2021/06/22 12:40:05;;;;;;;19.93;13.87;;;20.20;95.50;;;;;;4888226;29;20174;-92
2021/06/22 12:43:19;;;;;;;21.33;14.77;;;20.20;95.40;;;;;;4883025;29;20180;-93
2021/06/22 12:46:34;;;;;;;;;;;;;;;;;;;;;
2021/06/22 12:49:35;;;;;;;;;;;;;;;;;;;;;
2021/06/22 12:52:33;;;;;;;22.23;15.70;;;20.20;95.20;;;;;;4923302;29;20216;-93
2021/06/22 12:55:19;;;;;;;22.60;14.93;;;20.20;94.80;;;;;;4919986;29;20220;-94
2021/06/22 12:58:35;;;;;;;;;;;;;;;;;;;;;
2021/06/22 13:07:07;;;;;;;;;;;;;;;;;;;;;
2021/06/22 13:12:38;;;;;;;;;;;;;;;;;;;;;
2021/06/22 13:15:17;;;;;;;26.40;16.20;;;20.60;94.50;;;;;;4920489;29;20200;-93
2021/06/22 13:17:56;;;;;;;23.23;15.93;;;20.70;94.40;;;;;;4903169;29;20182;-93
2021/06/22 13:20:35;;;;;;;20.80;15.23;;;20.60;94.40;;;;;;4903603;29;20181;-93
2021/06/22 13:23:17;;;;;;;20.87;14.90;;;20.60;94.00;;;;;;4902590;29;20190;-93
2021/06/22 13:29:17;;;;;;;18.53;14.17;;;20.50;94.20;;;;;;4890725;29;20603;-93
2021/06/22 13:32:42;;;;;;;23.50;15.07;;;20.30;93.50;;;;;;4884190;29;20666;-93
2021/06/22 13:35:15;;;;;;;22.93;15.67;;;20.20;93.60;;;;;;4882558;29;20703;-92
2021/06/22 13:38:13;;;;;;;19.00;14.90;;;20.00;93.90;;;;;;4892551;29;20188;-92
2021/06/22 13:41:26;;;;;;;18.53;14.30;;;20.00;94.30;;;;;;4903719;29;20260;-93
2021/06/22 13:44:18;;;;;;;21.53;14.87;;;20.10;94.20;;;;;;4880265;29;20181;-93
2021/06/22 13:46:48;;;;;;;19.97;14.13;;;20.00;94.70;;;;;;4900011;29;20316;-93
2021/06/22 13:49:16;;;;;;;20.27;13.87;;;20.00;94.20;;;;;;4883406;29;20217;-93
2021/06/22 13:51:59;;;;;;;18.73;15.57;;;20.00;94.60;;;;;;4883280;29;20211;-92
2021/06/22 14:01:09;;;;;;;15.10;11.83;;;20.20;92.60;;;;;;4901313;29;20186;-94
2021/06/22 14:03:42;;;;;;;17.90;11.10;;;20.20;92.50;;;;;;4901660;29;20212;-93
2021/06/22 14:07:08;;;;;;;;;;;;;;;;;;;;;
2021/06/22 14:10:11;;;;;;;;;;;;;;;;;;;;;
2021/06/22 14:13:09;;;;;;;;;;;;;;;;;;;;;
2021/06/22 14:16:32;;;;;;;;;;;;;;;;;;;;;
2021/06/22 14:19:45;;;;;;;12.97;9.53;;;19.90;92.50;;;;;;4843393;29;20276;-93
2021/06/22 14:22:37;;;;;;;14.57;9.80;;;19.80;92.50;;;;;;4904345;29;20184;-93
2021/06/22 14:28:16;;;;;;;16.83;9.97;;;19.80;93.00;;;;;;4873071;29;20185;-92
2021/06/22 14:31:23;;;;;;;13.73;10.80;;;19.80;93.00;;;;;;4883212;29;20201;-93
2021/06/22 14:37:30;;;;;;;;;;;;;;;;;;;;;
2021/06/22 14:44:29;;;;;;;;;;;;;;;;;;;;;
2021/06/22 14:57:17;;;;;;;19.17;14.40;;;20.20;92.40;;;;;;4777415;29;20258;-93
2021/06/22 14:59:45;;;;;;;19.87;15.13;;;20.20;92.80;;;;;;4760986;29;20274;-93
2021/06/22 15:05:25;;;;;;;21.77;14.67;;;20.10;92.90;;;;;;4813351;29;20238;-90
2021/06/22 15:08:05;;;;;;;;;;;;;;;;;;;;;
2021/06/22 15:10:44;;;;;;;19.73;15.20;;;20.20;92.70;;;;;;4899146;29;20173;-93
2021/06/22 15:13:16;;;;;;;19.27;14.63;;;20.20;92.80;;;;;;4892592;29;20226;-93
2021/06/22 15:15:56;;;;;;;18.23;15.77;;;20.00;93.50;;;;;;4900739;29;20176;-93
2021/06/22 15:21:34;;;;;;;21.37;15.67;;;20.20;93.20;;;;;;4910658;29;20378;-94
2021/06/22 15:24:10;;;;;;;;;;;;;;;;;;;;;
2021/06/22 15:29:46;;;;;;;23.90;17.70;;;20.00;93.60;;;;;;4908678;29;20190;-93
2021/06/22 16:00:14;;;;;;;24.70;20.73;;;19.70;95.80;;;;;;4763658;29;20213;-93
2021/06/22 16:02:40;;;;;;;28.33;22.73;;;19.70;95.50;;;;;;4808305;29;20670;-79
2021/06/22 16:05:06;;;;;;;27.70;22.60;;;19.70;95.70;;;;;;4806600;29;20192;-81
2021/06/22 16:07:32;;;;;;;26.13;22.27;;;19.60;95.70;;;;;;4892998;29;20193;-81
2021/06/22 16:09:57;;;;;;;28.67;22.10;;;19.50;95.90;;;;;;4901998;29;20563;-80
2021/06/22 16:12:23;;;;;;;25.87;22.57;;;19.50;96.00;;;;;;4920405;29;20216;-81
2021/06/22 16:14:49;;;;;;;28.70;22.83;;;19.60;96.60;;;;;;4920352;29;20208;-81
2021/06/22 16:17:14;;;;;;;30.40;24.17;;;19.50;95.80;;;;;;4903094;29;20647;-81
2021/06/22 16:19:40;;;;;;;30.90;23.60;;;19.50;97.00;;;;;;4903267;29;20609;-80
2021/06/22 16:22:06;;;;;;;31.80;22.87;;;19.60;97.00;;;;;;4920342;29;20184;-81
2021/06/22 16:24:31;;;;;;;26.90;23.30;;;19.50;96.50;;;;;;4903221;29;20689;-80
2021/06/22 16:26:57;;;;;;;27.57;23.00;;;19.40;97.00;;;;;;4903503;29;20630;-81
2021/06/22 16:29:23;;;;;;;31.53;24.87;;;19.60;96.90;;;;;;4903492;29;20649;-86
2021/06/22 16:31:48;;;;;;;31.67;23.50;;;19.30;97.80;;;;;;4906444;29;20224;-93
2021/06/22 16:34:14;;;;;;;33.07;24.90;;;19.30;97.70;;;;;;4922748;29;20597;-81
2021/06/22 16:36:40;;;;;;;29.90;25.73;;;19.20;98.20;;;;;;4903045;29;20244;-81
2021/06/22 16:39:05;;;;;;;29.23;25.43;;;19.20;98.80;;;;;;4902861;29;20548;-81
2021/06/22 16:41:31;;;;;;;32.50;25.80;;;19.40;97.70;;;;;;4919950;29;20193;-81
2021/06/22 16:43:57;;;;;;;30.80;24.63;;;19.50;98.40;;;;;;4920012;29;20698;-84
2021/06/22 16:46:23;;;;;;;30.43;26.10;;;19.40;98.10;;;;;;4901631;29;20723;-81
2021/06/22 16:48:49;;;;;;;28.30;23.83;;;19.50;98.40;;;;;;4918588;29;20181;-80
2021/06/22 16:51:15;;;;;;;31.17;25.37;;;19.40;99.10;;;;;;4918401;29;20187;-81
2021/06/22 16:53:43;;;;;;;33.67;25.30;;;19.50;98.80;;;;;;4902187;29;20636;-81
2021/06/22 16:56:08;;;;;;;33.33;26.00;;;19.50;98.80;;;;;;4919153;29;20269;-81
2021/06/22 16:58:34;;;;;;;30.37;25.90;;;19.50;99.00;;;;;;4919553;29;20229;-81
2021/06/22 17:00:59;;;;;;;31.90;26.57;;;19.50;99.00;;;;;;4902600;29;20322;-81
2021/06/22 17:03:25;;;;;;;28.73;25.17;;;19.60;98.90;;;;;;4902490;29;20202;-81
2021/06/22 17:05:51;;;;;;;28.90;25.37;;;19.40;99.00;;;;;;4905277;29;20197;-81
2021/06/22 17:08:17;;;;;;;31.33;25.83;;;19.40;99.00;;;;;;4921155;29;20609;-81
2021/06/22 17:10:43;;;;;;;31.37;23.93;;;19.40;99.10;;;;;;4904572;29;20255;-81
2021/06/22 17:13:09;;;;;;;28.17;23.23;;;19.40;98.70;;;;;;4904107;29;20237;-81
2021/06/22 17:15:35;;;;;;;28.30;22.57;;;19.50;97.80;;;;;;4903909;29;20177;-81
2021/06/22 17:18:02;;;;;;;26.07;22.73;;;19.50;98.00;;;;;;4902727;29;20204;-81
2021/06/22 17:20:28;;;;;;;27.40;22.60;;;19.40;98.00;;;;;;4902325;29;20188;-80
2021/06/22 17:22:54;;;;;;;26.17;22.07;;;19.40;97.90;;;;;;4902040;29;20286;-80
2021/06/22 17:25:24;;;;;;;27.53;22.40;;;19.30;98.30;;;;;;4919031;29;20205;-80
2021/06/22 17:27:50;;;;;;;25.33;20.83;;;19.30;98.20;;;;;;4918834;29;20606;-80
2021/06/22 17:30:18;;;;;;;24.40;20.17;;;19.30;98.30;;;;;;4918918;29;20313;-80
2021/06/22 17:32:44;;;;;;;23.40;19.83;;;19.30;98.30;;;;;;4901884;29;20314;-81
2021/06/22 17:35:12;;;;;;;25.10;19.97;;;19.40;98.00;;;;;;4919159;29;20662;-81
2021/06/22 17:37:38;;;;;;;25.53;21.40;;;19.50;98.20;;;;;;4917996;29;20239;-81
2021/06/22 17:40:06;;;;;;;24.73;19.80;;;19.50;98.30;;;;;;4901620;29;20182;-81
2021/06/22 17:42:31;;;;;;;23.33;19.83;;;19.40;98.80;;;;;;4901681;29;20207;-80
2021/06/22 17:44:57;;;;;;;23.80;19.73;;;19.40;98.60;;;;;;4918498;29;20591;-80